sensor_id;sensor_type;location;lat;lon;timestamp;P1;durP1;ratioP1;P2;durP2;ratioP2
12469;SDS011;36499;46.484;13.832;2022-10-16T00:01:34;27.13;;;22.03;;
12469;SDS011;36499;46.484;13.832;2022-10-16T00:04:01;35.10;;;25.00;;
12469;SDS011;36499;46.484;13.832;2022-10-16T00:06:29;36.60;;;25.77;;
12469;SDS011;36499;46.484;13.832;2022-10-16T00:08:57;30.13;;;22.47;;
12469;SDS011;36499;46.484;13.832;2022-10-16T00:11:25;32.77;;;24.80;;
12469;SDS011;36499;46.484;13.832;2022-10-16T00:13:58;32.00;;;25.00;;
12469;SDS011;36499;46.484;13.832;2022-10-16T00:16:28;33.73;;;23.90;;
12469;SDS011;36499;46.484;13.832;2022-10-16T00:18:57;31.07;;;23.67;;
12469;SDS011;36499;46.484;13.832;2022-10-16T00:21:25;31.50;;;23.87;;
12469;SDS011;36499;46.484;13.832;2022-10-16T00:23:55;32.73;;;24.93;;
12469;SDS011;36499;46.484;13.832;2022-10-16T00:26:26;33.47;;;24.93;;
12469;SDS011;36499;46.484;13.832;2022-10-16T00:28:59;33.97;;;25.67;;
12469;SDS011;36499;46.484;13.832;2022-10-16T00:31:26;32.07;;;24.50;;
12469;SDS011;36499;46.484;13.832;2022-10-16T00:33:54;30.87;;;24.60;;
12469;SDS011;36499;46.484;13.832;2022-10-16T00:36:24;32.30;;;24.33;;
12469;SDS011;36499;46.484;13.832;2022-10-16T00:38:53;32.10;;;24.33;;
12469;SDS011;36499;46.484;13.832;2022-10-16T00:41:24;33.90;;;24.17;;
12469;SDS011;36499;46.484;13.832;2022-10-16T00:43:53;34.43;;;24.30;;
12469;SDS011;36499;46.484;13.832;2022-10-16T00:46:23;32.27;;;24.13;;
12469;SDS011;36499;46.484;13.832;2022-10-16T00:48:54;37.30;;;26.20;;
12469;SDS011;36499;46.484;13.832;2022-10-16T00:51:30;35.57;;;24.63;;
12469;SDS011;36499;46.484;13.832;2022-10-16T00:54:06;32.73;;;24.80;;
12469;SDS011;36499;46.484;13.832;2022-10-16T00:56:41;34.13;;;24.80;;
12469;SDS011;36499;46.484;13.832;2022-10-16T00:59:11;29.73;;;23.00;;
12469;SDS011;36499;46.484;13.832;2022-10-16T01:01:44;31.13;;;23.80;;
12469;SDS011;36499;46.484;13.832;2022-10-16T01:04:16;33.93;;;25.20;;
12469;SDS011;36499;46.484;13.832;2022-10-16T01:06:46;32.67;;;24.57;;
12469;SDS011;36499;46.484;13.832;2022-10-16T01:09:30;35.43;;;25.40;;
12469;SDS011;36499;46.484;13.832;2022-10-16T01:12:13;40.00;;;25.90;;
12469;SDS011;36499;46.484;13.832;2022-10-16T01:14:53;34.53;;;25.60;;
12469;SDS011;36499;46.484;13.832;2022-10-16T01:17:28;35.63;;;25.10;;
12469;SDS011;36499;46.484;13.832;2022-10-16T01:20:05;35.13;;;25.67;;
12469;SDS011;36499;46.484;13.832;2022-10-16T01:22:55;36.97;;;26.20;;
12469;SDS011;36499;46.484;13.832;2022-10-16T01:25:50;40.10;;;28.77;;
12469;SDS011;36499;46.484;13.832;2022-10-16T01:29:01;36.27;;;24.53;;
12469;SDS011;36499;46.484;13.832;2022-10-16T01:31:35;31.87;;;25.10;;
12469;SDS011;36499;46.484;13.832;2022-10-16T01:34:08;34.90;;;24.87;;
12469;SDS011;36499;46.484;13.832;2022-10-16T01:36:48;37.53;;;25.27;;
12469;SDS011;36499;46.484;13.832;2022-10-16T01:39:22;35.70;;;25.47;;
12469;SDS011;36499;46.484;13.832;2022-10-16T01:41:55;32.87;;;23.30;;
12469;SDS011;36499;46.484;13.832;2022-10-16T01:44:32;35.73;;;24.23;;
12469;SDS011;36499;46.484;13.832;2022-10-16T01:47:04;33.00;;;24.00;;
12469;SDS011;36499;46.484;13.832;2022-10-16T01:49:36;30.60;;;23.77;;
12469;SDS011;36499;46.484;13.832;2022-10-16T01:52:07;35.30;;;25.77;;
12469;SDS011;36499;46.484;13.832;2022-10-16T01:54:47;33.40;;;25.80;;
12469;SDS011;36499;46.484;13.832;2022-10-16T01:57:18;36.60;;;26.57;;
12469;SDS011;36499;46.484;13.832;2022-10-16T01:59:58;34.57;;;24.93;;
12469;SDS011;36499;46.484;13.832;2022-10-16T02:02:35;30.33;;;23.27;;
12469;SDS011;36499;46.484;13.832;2022-10-16T02:05:08;34.37;;;25.17;;
12469;SDS011;36499;46.484;13.832;2022-10-16T02:07:42;34.90;;;25.07;;
12469;SDS011;36499;46.484;13.832;2022-10-16T02:10:15;34.77;;;24.87;;
12469;SDS011;36499;46.484;13.832;2022-10-16T02:12:44;36.07;;;26.30;;
12469;SDS011;36499;46.484;13.832;2022-10-16T02:15:21;33.73;;;24.57;;
12469;SDS011;36499;46.484;13.832;2022-10-16T02:17:52;31.27;;;23.60;;
12469;SDS011;36499;46.484;13.832;2022-10-16T02:20:20;35.67;;;24.07;;
12469;SDS011;36499;46.484;13.832;2022-10-16T02:22:58;33.27;;;24.20;;
12469;SDS011;36499;46.484;13.832;2022-10-16T02:25:29;32.37;;;23.60;;
12469;SDS011;36499;46.484;13.832;2022-10-16T02:28:01;32.73;;;23.93;;
12469;SDS011;36499;46.484;13.832;2022-10-16T02:30:38;31.83;;;24.10;;
12469;SDS011;36499;46.484;13.832;2022-10-16T02:33:12;33.80;;;24.93;;
12469;SDS011;36499;46.484;13.832;2022-10-16T02:35:43;32.37;;;24.30;;
12469;SDS011;36499;46.484;13.832;2022-10-16T02:38:14;32.10;;;23.60;;
12469;SDS011;36499;46.484;13.832;2022-10-16T02:40:44;33.53;;;23.07;;
12469;SDS011;36499;46.484;13.832;2022-10-16T02:43:12;32.33;;;24.43;;
12469;SDS011;36499;46.484;13.832;2022-10-16T02:45:41;31.03;;;24.20;;
12469;SDS011;36499;46.484;13.832;2022-10-16T02:48:09;31.43;;;23.83;;
12469;SDS011;36499;46.484;13.832;2022-10-16T02:50:36;33.13;;;26.30;;
12469;SDS011;36499;46.484;13.832;2022-10-16T02:53:03;31.40;;;24.93;;
12469;SDS011;36499;46.484;13.832;2022-10-16T02:55:31;32.97;;;25.63;;
12469;SDS011;36499;46.484;13.832;2022-10-16T02:58:02;31.47;;;24.77;;
12469;SDS011;36499;46.484;13.832;2022-10-16T03:00:30;33.87;;;24.30;;
12469;SDS011;36499;46.484;13.832;2022-10-16T03:02:58;36.57;;;26.23;;
12469;SDS011;36499;46.484;13.832;2022-10-16T03:05:25;31.97;;;25.00;;
12469;SDS011;36499;46.484;13.832;2022-10-16T03:07:53;36.30;;;25.90;;
12469;SDS011;36499;46.484;13.832;2022-10-16T03:10:20;36.83;;;25.87;;
12469;SDS011;36499;46.484;13.832;2022-10-16T03:12:48;34.77;;;25.70;;
12469;SDS011;36499;46.484;13.832;2022-10-16T03:15:16;33.03;;;24.67;;
12469;SDS011;36499;46.484;13.832;2022-10-16T03:17:43;35.63;;;24.97;;
12469;SDS011;36499;46.484;13.832;2022-10-16T03:20:12;36.03;;;25.67;;
12469;SDS011;36499;46.484;13.832;2022-10-16T03:22:39;33.10;;;25.00;;
12469;SDS011;36499;46.484;13.832;2022-10-16T03:25:07;35.73;;;26.33;;
12469;SDS011;36499;46.484;13.832;2022-10-16T03:27:35;36.07;;;26.07;;
12469;SDS011;36499;46.484;13.832;2022-10-16T03:30:04;31.93;;;23.30;;
12469;SDS011;36499;46.484;13.832;2022-10-16T03:32:32;26.80;;;20.63;;
12469;SDS011;36499;46.484;13.832;2022-10-16T03:35:00;22.77;;;18.67;;
12469;SDS011;36499;46.484;13.832;2022-10-16T03:37:28;21.43;;;17.53;;
12469;SDS011;36499;46.484;13.832;2022-10-16T03:39:55;22.80;;;16.90;;
12469;SDS011;36499;46.484;13.832;2022-10-16T03:42:23;21.80;;;17.00;;
12469;SDS011;36499;46.484;13.832;2022-10-16T03:44:50;24.37;;;18.53;;
12469;SDS011;36499;46.484;13.832;2022-10-16T03:47:17;26.93;;;20.03;;
12469;SDS011;36499;46.484;13.832;2022-10-16T03:49:46;25.57;;;19.13;;
12469;SDS011;36499;46.484;13.832;2022-10-16T03:52:14;23.83;;;19.03;;
12469;SDS011;36499;46.484;13.832;2022-10-16T03:54:42;20.60;;;15.57;;
12469;SDS011;36499;46.484;13.832;2022-10-16T03:57:10;15.90;;;13.73;;
12469;SDS011;36499;46.484;13.832;2022-10-16T03:59:37;20.20;;;15.87;;
12469;SDS011;36499;46.484;13.832;2022-10-16T04:02:05;22.93;;;19.03;;
12469;SDS011;36499;46.484;13.832;2022-10-16T04:04:32;18.47;;;15.10;;
12469;SDS011;36499;46.484;13.832;2022-10-16T04:06:59;20.20;;;16.07;;
12469;SDS011;36499;46.484;13.832;2022-10-16T04:09:26;19.97;;;16.37;;
12469;SDS011;36499;46.484;13.832;2022-10-16T04:11:55;23.47;;;18.10;;
12469;SDS011;36499;46.484;13.832;2022-10-16T04:14:22;23.57;;;19.67;;
12469;SDS011;36499;46.484;13.832;2022-10-16T04:16:52;26.13;;;21.00;;
12469;SDS011;36499;46.484;13.832;2022-10-16T04:19:19;32.53;;;24.40;;
12469;SDS011;36499;46.484;13.832;2022-10-16T04:21:47;36.33;;;25.37;;
12469;SDS011;36499;46.484;13.832;2022-10-16T04:24:14;34.37;;;24.63;;
12469;SDS011;36499;46.484;13.832;2022-10-16T04:26:41;34.70;;;25.93;;
12469;SDS011;36499;46.484;13.832;2022-10-16T04:29:09;37.03;;;24.40;;
12469;SDS011;36499;46.484;13.832;2022-10-16T04:31:36;33.70;;;25.13;;
12469;SDS011;36499;46.484;13.832;2022-10-16T04:34:04;34.07;;;24.63;;
12469;SDS011;36499;46.484;13.832;2022-10-16T04:36:31;33.57;;;24.83;;
12469;SDS011;36499;46.484;13.832;2022-10-16T04:38:58;34.27;;;24.07;;
12469;SDS011;36499;46.484;13.832;2022-10-16T04:41:26;35.33;;;24.87;;
12469;SDS011;36499;46.484;13.832;2022-10-16T04:43:53;41.80;;;26.47;;
12469;SDS011;36499;46.484;13.832;2022-10-16T04:46:22;34.53;;;25.47;;
12469;SDS011;36499;46.484;13.832;2022-10-16T04:48:49;31.33;;;24.00;;
12469;SDS011;36499;46.484;13.832;2022-10-16T04:51:17;33.53;;;25.50;;
12469;SDS011;36499;46.484;13.832;2022-10-16T04:53:44;32.33;;;24.63;;
12469;SDS011;36499;46.484;13.832;2022-10-16T04:56:11;31.90;;;23.03;;
12469;SDS011;36499;46.484;13.832;2022-10-16T04:58:38;29.83;;;23.63;;
12469;SDS011;36499;46.484;13.832;2022-10-16T05:01:06;31.83;;;25.03;;
12469;SDS011;36499;46.484;13.832;2022-10-16T05:03:34;41.07;;;26.27;;
12469;SDS011;36499;46.484;13.832;2022-10-16T05:06:01;36.90;;;26.33;;
12469;SDS011;36499;46.484;13.832;2022-10-16T05:08:31;41.37;;;27.23;;
12469;SDS011;36499;46.484;13.832;2022-10-16T05:10:59;33.00;;;23.73;;
12469;SDS011;36499;46.484;13.832;2022-10-16T05:13:26;33.47;;;24.57;;
12469;SDS011;36499;46.484;13.832;2022-10-16T05:15:54;33.77;;;25.63;;
12469;SDS011;36499;46.484;13.832;2022-10-16T05:18:22;32.27;;;24.40;;
12469;SDS011;36499;46.484;13.832;2022-10-16T05:20:51;37.00;;;25.30;;
12469;SDS011;36499;46.484;13.832;2022-10-16T05:23:19;33.77;;;24.73;;
12469;SDS011;36499;46.484;13.832;2022-10-16T05:25:51;32.30;;;22.67;;
12469;SDS011;36499;46.484;13.832;2022-10-16T05:28:20;32.10;;;24.37;;
12469;SDS011;36499;46.484;13.832;2022-10-16T05:30:48;35.03;;;24.83;;
12469;SDS011;36499;46.484;13.832;2022-10-16T05:33:15;32.83;;;23.97;;
12469;SDS011;36499;46.484;13.832;2022-10-16T05:35:43;32.40;;;24.60;;
12469;SDS011;36499;46.484;13.832;2022-10-16T05:38:11;34.87;;;25.40;;
12469;SDS011;36499;46.484;13.832;2022-10-16T05:40:38;36.90;;;24.67;;
12469;SDS011;36499;46.484;13.832;2022-10-16T05:43:06;32.37;;;25.47;;
12469;SDS011;36499;46.484;13.832;2022-10-16T05:45:33;37.70;;;26.53;;
12469;SDS011;36499;46.484;13.832;2022-10-16T05:48:01;35.37;;;24.50;;
12469;SDS011;36499;46.484;13.832;2022-10-16T05:50:32;35.53;;;25.90;;
12469;SDS011;36499;46.484;13.832;2022-10-16T05:52:59;37.47;;;26.23;;
12469;SDS011;36499;46.484;13.832;2022-10-16T05:55:27;33.83;;;24.43;;
12469;SDS011;36499;46.484;13.832;2022-10-16T05:57:54;35.40;;;26.03;;
12469;SDS011;36499;46.484;13.832;2022-10-16T06:00:21;28.20;;;22.63;;
12469;SDS011;36499;46.484;13.832;2022-10-16T06:02:48;34.40;;;23.93;;
12469;SDS011;36499;46.484;13.832;2022-10-16T06:05:15;30.73;;;24.13;;
12469;SDS011;36499;46.484;13.832;2022-10-16T06:07:42;32.53;;;24.03;;
12469;SDS011;36499;46.484;13.832;2022-10-16T06:10:09;34.00;;;22.93;;
12469;SDS011;36499;46.484;13.832;2022-10-16T06:12:38;27.67;;;21.63;;
12469;SDS011;36499;46.484;13.832;2022-10-16T06:15:05;27.20;;;22.47;;
12469;SDS011;36499;46.484;13.832;2022-10-16T06:17:33;31.07;;;22.03;;
12469;SDS011;36499;46.484;13.832;2022-10-16T06:20:00;31.47;;;24.37;;
12469;SDS011;36499;46.484;13.832;2022-10-16T06:22:27;31.67;;;25.10;;
12469;SDS011;36499;46.484;13.832;2022-10-16T06:24:54;30.40;;;23.97;;
12469;SDS011;36499;46.484;13.832;2022-10-16T06:27:22;30.07;;;23.33;;
12469;SDS011;36499;46.484;13.832;2022-10-16T06:29:50;32.80;;;25.47;;
12469;SDS011;36499;46.484;13.832;2022-10-16T06:32:17;30.90;;;23.40;;
12469;SDS011;36499;46.484;13.832;2022-10-16T06:34:46;28.40;;;21.77;;
12469;SDS011;36499;46.484;13.832;2022-10-16T06:37:13;31.47;;;24.00;;
12469;SDS011;36499;46.484;13.832;2022-10-16T06:39:40;31.53;;;22.70;;
12469;SDS011;36499;46.484;13.832;2022-10-16T06:42:07;28.73;;;22.53;;
12469;SDS011;36499;46.484;13.832;2022-10-16T06:44:35;28.47;;;21.83;;
12469;SDS011;36499;46.484;13.832;2022-10-16T06:47:03;30.93;;;21.73;;
12469;SDS011;36499;46.484;13.832;2022-10-16T06:49:31;31.87;;;23.33;;
12469;SDS011;36499;46.484;13.832;2022-10-16T06:51:58;33.07;;;24.80;;
12469;SDS011;36499;46.484;13.832;2022-10-16T06:54:26;30.97;;;24.27;;
12469;SDS011;36499;46.484;13.832;2022-10-16T06:56:54;35.53;;;25.40;;
12469;SDS011;36499;46.484;13.832;2022-10-16T06:59:21;31.93;;;23.33;;
12469;SDS011;36499;46.484;13.832;2022-10-16T07:01:48;30.27;;;25.10;;
12469;SDS011;36499;46.484;13.832;2022-10-16T07:04:17;30.33;;;23.93;;
12469;SDS011;36499;46.484;13.832;2022-10-16T07:06:44;27.93;;;22.50;;
12469;SDS011;36499;46.484;13.832;2022-10-16T07:09:11;30.60;;;23.07;;
12469;SDS011;36499;46.484;13.832;2022-10-16T07:11:39;28.60;;;22.87;;
12469;SDS011;36499;46.484;13.832;2022-10-16T07:14:09;29.00;;;21.87;;
12469;SDS011;36499;46.484;13.832;2022-10-16T07:16:43;24.60;;;20.37;;
12469;SDS011;36499;46.484;13.832;2022-10-16T07:19:10;25.83;;;20.43;;
12469;SDS011;36499;46.484;13.832;2022-10-16T07:21:41;25.80;;;21.07;;
12469;SDS011;36499;46.484;13.832;2022-10-16T07:24:10;28.43;;;20.37;;
12469;SDS011;36499;46.484;13.832;2022-10-16T07:26:40;22.50;;;20.07;;
12469;SDS011;36499;46.484;13.832;2022-10-16T07:29:12;23.03;;;19.50;;
12469;SDS011;36499;46.484;13.832;2022-10-16T07:31:41;25.30;;;20.13;;
12469;SDS011;36499;46.484;13.832;2022-10-16T07:34:09;26.93;;;20.20;;
12469;SDS011;36499;46.484;13.832;2022-10-16T07:36:41;26.87;;;20.83;;
12469;SDS011;36499;46.484;13.832;2022-10-16T07:39:08;27.40;;;20.47;;
12469;SDS011;36499;46.484;13.832;2022-10-16T07:41:36;22.70;;;19.53;;
12469;SDS011;36499;46.484;13.832;2022-10-16T07:44:03;26.73;;;20.30;;
12469;SDS011;36499;46.484;13.832;2022-10-16T07:46:31;24.50;;;20.70;;
12469;SDS011;36499;46.484;13.832;2022-10-16T07:49:01;24.13;;;20.73;;
12469;SDS011;36499;46.484;13.832;2022-10-16T07:51:29;23.50;;;19.47;;
12469;SDS011;36499;46.484;13.832;2022-10-16T07:53:57;22.97;;;19.23;;
12469;SDS011;36499;46.484;13.832;2022-10-16T07:56:25;25.23;;;20.17;;
12469;SDS011;36499;46.484;13.832;2022-10-16T07:58:52;23.50;;;18.90;;
12469;SDS011;36499;46.484;13.832;2022-10-16T08:01:21;23.67;;;20.33;;
12469;SDS011;36499;46.484;13.832;2022-10-16T08:03:49;23.27;;;19.73;;
12469;SDS011;36499;46.484;13.832;2022-10-16T08:06:18;23.07;;;18.10;;
12469;SDS011;36499;46.484;13.832;2022-10-16T08:08:47;21.17;;;17.53;;
12469;SDS011;36499;46.484;13.832;2022-10-16T08:11:17;21.57;;;17.20;;
12469;SDS011;36499;46.484;13.832;2022-10-16T08:13:44;19.10;;;16.83;;
12469;SDS011;36499;46.484;13.832;2022-10-16T08:16:11;20.73;;;17.23;;
12469;SDS011;36499;46.484;13.832;2022-10-16T08:18:39;19.80;;;17.53;;
12469;SDS011;36499;46.484;13.832;2022-10-16T08:21:08;19.13;;;17.13;;
12469;SDS011;36499;46.484;13.832;2022-10-16T08:23:40;20.83;;;17.67;;
12469;SDS011;36499;46.484;13.832;2022-10-16T08:26:09;20.70;;;18.37;;
12469;SDS011;36499;46.484;13.832;2022-10-16T08:28:38;22.00;;;17.40;;
12469;SDS011;36499;46.484;13.832;2022-10-16T08:31:07;21.53;;;18.00;;
12469;SDS011;36499;46.484;13.832;2022-10-16T08:33:36;20.60;;;17.93;;
12469;SDS011;36499;46.484;13.832;2022-10-16T08:36:09;21.70;;;16.77;;
12469;SDS011;36499;46.484;13.832;2022-10-16T08:38:37;23.43;;;18.07;;
12469;SDS011;36499;46.484;13.832;2022-10-16T08:41:16;19.93;;;17.60;;
12469;SDS011;36499;46.484;13.832;2022-10-16T08:44:21;19.70;;;15.97;;
12469;SDS011;36499;46.484;13.832;2022-10-16T08:47:35;19.23;;;15.87;;
12469;SDS011;36499;46.484;13.832;2022-10-16T08:50:17;16.97;;;15.20;;
12469;SDS011;36499;46.484;13.832;2022-10-16T08:52:50;16.70;;;15.00;;
12469;SDS011;36499;46.484;13.832;2022-10-16T08:58:15;17.70;;;15.13;;
12469;SDS011;36499;46.484;13.832;2022-10-16T09:00:48;16.00;;;14.37;;
12469;SDS011;36499;46.484;13.832;2022-10-16T09:03:25;16.03;;;14.33;;
12469;SDS011;36499;46.484;13.832;2022-10-16T09:06:12;17.10;;;13.93;;
12469;SDS011;36499;46.484;13.832;2022-10-16T09:09:02;15.23;;;13.73;;
12469;SDS011;36499;46.484;13.832;2022-10-16T09:11:52;17.30;;;12.93;;
12469;SDS011;36499;46.484;13.832;2022-10-16T09:14:38;14.63;;;13.03;;
12469;SDS011;36499;46.484;13.832;2022-10-16T09:17:32;18.00;;;14.27;;
12469;SDS011;36499;46.484;13.832;2022-10-16T09:20:19;14.07;;;12.57;;
12469;SDS011;36499;46.484;13.832;2022-10-16T09:23:04;16.40;;;12.47;;
12469;SDS011;36499;46.484;13.832;2022-10-16T09:25:43;13.67;;;12.17;;
12469;SDS011;36499;46.484;13.832;2022-10-16T09:28:17;14.17;;;12.67;;
12469;SDS011;36499;46.484;13.832;2022-10-16T09:30:47;15.73;;;12.70;;
12469;SDS011;36499;46.484;13.832;2022-10-16T09:33:18;17.70;;;13.10;;
12469;SDS011;36499;46.484;13.832;2022-10-16T09:35:52;13.90;;;11.73;;
12469;SDS011;36499;46.484;13.832;2022-10-16T09:38:25;13.87;;;12.47;;
12469;SDS011;36499;46.484;13.832;2022-10-16T09:40:55;12.73;;;11.43;;
12469;SDS011;36499;46.484;13.832;2022-10-16T09:43:39;17.77;;;12.27;;
12469;SDS011;36499;46.484;13.832;2022-10-16T09:46:21;12.33;;;11.13;;
12469;SDS011;36499;46.484;13.832;2022-10-16T09:48:55;15.10;;;11.40;;
12469;SDS011;36499;46.484;13.832;2022-10-16T09:51:27;12.27;;;10.97;;
12469;SDS011;36499;46.484;13.832;2022-10-16T09:53:58;14.30;;;11.73;;
12469;SDS011;36499;46.484;13.832;2022-10-16T09:56:27;11.67;;;10.47;;
12469;SDS011;36499;46.484;13.832;2022-10-16T09:58:58;11.80;;;10.60;;
12469;SDS011;36499;46.484;13.832;2022-10-16T10:01:30;14.73;;;10.90;;
12469;SDS011;36499;46.484;13.832;2022-10-16T10:04:09;13.20;;;10.43;;
12469;SDS011;36499;46.484;13.832;2022-10-16T10:06:40;16.47;;;10.97;;
12469;SDS011;36499;46.484;13.832;2022-10-16T10:09:16;12.47;;;9.97;;
12469;SDS011;36499;46.484;13.832;2022-10-16T10:11:49;12.87;;;10.97;;
12469;SDS011;36499;46.484;13.832;2022-10-16T10:14:23;14.13;;;10.47;;
12469;SDS011;36499;46.484;13.832;2022-10-16T10:17:11;12.27;;;10.50;;
12469;SDS011;36499;46.484;13.832;2022-10-16T10:19:46;12.10;;;10.87;;
12469;SDS011;36499;46.484;13.832;2022-10-16T10:22:22;12.40;;;10.73;;
12469;SDS011;36499;46.484;13.832;2022-10-16T10:24:55;12.63;;;10.27;;
12469;SDS011;36499;46.484;13.832;2022-10-16T10:27:42;12.43;;;10.87;;
12469;SDS011;36499;46.484;13.832;2022-10-16T10:30:39;15.00;;;11.00;;
12469;SDS011;36499;46.484;13.832;2022-10-16T10:33:19;12.37;;;10.70;;
12469;SDS011;36499;46.484;13.832;2022-10-16T10:35:58;12.27;;;9.70;;
12469;SDS011;36499;46.484;13.832;2022-10-16T10:38:42;11.37;;;9.87;;
12469;SDS011;36499;46.484;13.832;2022-10-16T10:41:27;11.30;;;9.80;;
12469;SDS011;36499;46.484;13.832;2022-10-16T10:44:51;10.60;;;9.50;;
12469;SDS011;36499;46.484;13.832;2022-10-16T10:47:41;12.03;;;10.80;;
12469;SDS011;36499;46.484;13.832;2022-10-16T10:50:22;13.33;;;10.67;;
12469;SDS011;36499;46.484;13.832;2022-10-16T10:53:02;14.30;;;11.03;;
12469;SDS011;36499;46.484;13.832;2022-10-16T10:55:49;13.30;;;11.90;;
12469;SDS011;36499;46.484;13.832;2022-10-16T11:01:35;14.47;;;11.50;;
12469;SDS011;36499;46.484;13.832;2022-10-16T11:07:43;13.63;;;12.23;;
12469;SDS011;36499;46.484;13.832;2022-10-16T11:10:18;14.23;;;12.80;;
12469;SDS011;36499;46.484;13.832;2022-10-16T11:12:52;18.10;;;13.53;;
12469;SDS011;36499;46.484;13.832;2022-10-16T11:15:30;14.50;;;13.00;;
12469;SDS011;36499;46.484;13.832;2022-10-16T11:18:04;14.23;;;12.83;;
12469;SDS011;36499;46.484;13.832;2022-10-16T11:20:40;16.47;;;12.67;;
12469;SDS011;36499;46.484;13.832;2022-10-16T11:23:16;17.63;;;13.10;;
12469;SDS011;36499;46.484;13.832;2022-10-16T11:25:53;15.57;;;13.40;;
12469;SDS011;36499;46.484;13.832;2022-10-16T11:28:27;18.37;;;13.57;;
12469;SDS011;36499;46.484;13.832;2022-10-16T11:31:05;18.47;;;13.73;;
12469;SDS011;36499;46.484;13.832;2022-10-16T11:33:41;17.03;;;13.70;;
12469;SDS011;36499;46.484;13.832;2022-10-16T11:36:16;14.87;;;13.47;;
12469;SDS011;36499;46.484;13.832;2022-10-16T11:38:51;16.60;;;14.03;;
12469;SDS011;36499;46.484;13.832;2022-10-16T11:41:29;16.67;;;14.63;;
12469;SDS011;36499;46.484;13.832;2022-10-16T11:44:13;16.63;;;14.87;;
12469;SDS011;36499;46.484;13.832;2022-10-16T11:47:01;17.93;;;13.37;;
12469;SDS011;36499;46.484;13.832;2022-10-16T11:49:46;16.07;;;14.47;;
12469;SDS011;36499;46.484;13.832;2022-10-16T11:52:20;16.60;;;14.13;;
12469;SDS011;36499;46.484;13.832;2022-10-16T11:55:02;17.63;;;13.80;;
12469;SDS011;36499;46.484;13.832;2022-10-16T11:57:43;21.80;;;14.33;;
12469;SDS011;36499;46.484;13.832;2022-10-16T12:00:19;16.47;;;14.77;;
12469;SDS011;36499;46.484;13.832;2022-10-16T12:02:54;17.00;;;15.23;;
12469;SDS011;36499;46.484;13.832;2022-10-16T12:05:34;18.77;;;14.27;;
12469;SDS011;36499;46.484;13.832;2022-10-16T12:08:19;15.63;;;14.10;;
12469;SDS011;36499;46.484;13.832;2022-10-16T12:10:47;15.87;;;12.97;;
12469;SDS011;36499;46.484;13.832;2022-10-16T12:13:32;16.70;;;15.00;;
12469;SDS011;36499;46.484;13.832;2022-10-16T12:16:06;15.37;;;13.87;;
12469;SDS011;36499;46.484;13.832;2022-10-16T12:18:48;17.23;;;13.97;;
12469;SDS011;36499;46.484;13.832;2022-10-16T12:21:29;16.47;;;14.77;;
12469;SDS011;36499;46.484;13.832;2022-10-16T12:23:58;15.83;;;13.90;;
12469;SDS011;36499;46.484;13.832;2022-10-16T12:26:31;18.53;;;14.20;;
12469;SDS011;36499;46.484;13.832;2022-10-16T12:29:12;17.53;;;15.23;;
12469;SDS011;36499;46.484;13.832;2022-10-16T12:31:49;15.87;;;14.27;;
12469;SDS011;36499;46.484;13.832;2022-10-16T12:34:20;15.10;;;13.60;;
12469;SDS011;36499;46.484;13.832;2022-10-16T12:37:10;16.33;;;13.90;;
12469;SDS011;36499;46.484;13.832;2022-10-16T12:39:45;18.07;;;14.50;;
12469;SDS011;36499;46.484;13.832;2022-10-16T12:42:19;15.27;;;13.67;;
12469;SDS011;36499;46.484;13.832;2022-10-16T12:45:21;15.37;;;13.77;;
12469;SDS011;36499;46.484;13.832;2022-10-16T12:47:56;16.60;;;14.80;;
12469;SDS011;36499;46.484;13.832;2022-10-16T12:50:27;16.20;;;14.50;;
12469;SDS011;36499;46.484;13.832;2022-10-16T12:52:59;16.60;;;15.00;;
12469;SDS011;36499;46.484;13.832;2022-10-16T12:55:31;16.67;;;14.17;;
12469;SDS011;36499;46.484;13.832;2022-10-16T12:58:18;17.30;;;15.57;;
12469;SDS011;36499;46.484;13.832;2022-10-16T13:01:23;16.47;;;14.77;;
12469;SDS011;36499;46.484;13.832;2022-10-16T13:04:15;17.17;;;15.37;;
12469;SDS011;36499;46.484;13.832;2022-10-16T13:07:03;16.77;;;15.20;;
12469;SDS011;36499;46.484;13.832;2022-10-16T13:10:02;17.33;;;15.53;;
12469;SDS011;36499;46.484;13.832;2022-10-16T13:13:12;18.77;;;16.87;;
12469;SDS011;36499;46.484;13.832;2022-10-16T13:16:15;21.83;;;19.63;;
12469;SDS011;36499;46.484;13.832;2022-10-16T13:19:00;19.40;;;17.40;;
12469;SDS011;36499;46.484;13.832;2022-10-16T13:21:49;20.63;;;17.63;;
12469;SDS011;36499;46.484;13.832;2022-10-16T13:24:34;19.33;;;17.23;;
12469;SDS011;36499;46.484;13.832;2022-10-16T13:27:20;19.20;;;17.23;;
12469;SDS011;36499;46.484;13.832;2022-10-16T13:30:02;20.70;;;18.30;;
12469;SDS011;36499;46.484;13.832;2022-10-16T13:32:43;24.37;;;18.60;;
12469;SDS011;36499;46.484;13.832;2022-10-16T13:35:20;20.30;;;18.30;;
12469;SDS011;36499;46.484;13.832;2022-10-16T13:37:50;21.00;;;17.60;;
12469;SDS011;36499;46.484;13.832;2022-10-16T13:40:30;19.77;;;17.87;;
12469;SDS011;36499;46.484;13.832;2022-10-16T13:42:59;21.80;;;17.60;;
12469;SDS011;36499;46.484;13.832;2022-10-16T13:45:28;19.83;;;17.93;;
12469;SDS011;36499;46.484;13.832;2022-10-16T13:48:03;21.30;;;19.20;;
12469;SDS011;36499;46.484;13.832;2022-10-16T13:50:32;20.90;;;18.20;;
12469;SDS011;36499;46.484;13.832;2022-10-16T13:53:03;16.90;;;15.17;;
12469;SDS011;36499;46.484;13.832;2022-10-16T13:55:31;17.53;;;14.87;;
12469;SDS011;36499;46.484;13.832;2022-10-16T13:58:07;15.87;;;14.37;;
12469;SDS011;36499;46.484;13.832;2022-10-16T14:00:39;12.50;;;11.30;;
12469;SDS011;36499;46.484;13.832;2022-10-16T14:03:13;15.20;;;13.70;;
12469;SDS011;36499;46.484;13.832;2022-10-16T14:05:42;14.13;;;12.30;;
12469;SDS011;36499;46.484;13.832;2022-10-16T14:08:15;15.03;;;9.53;;
12469;SDS011;36499;46.484;13.832;2022-10-16T14:10:46;10.00;;;8.90;;
12469;SDS011;36499;46.484;13.832;2022-10-16T14:13:20;12.20;;;9.83;;
12469;SDS011;36499;46.484;13.832;2022-10-16T14:15:56;9.77;;;8.70;;
12469;SDS011;36499;46.484;13.832;2022-10-16T14:18:36;7.53;;;6.83;;
12469;SDS011;36499;46.484;13.832;2022-10-16T14:21:06;7.97;;;7.03;;
12469;SDS011;36499;46.484;13.832;2022-10-16T14:23:42;10.93;;;7.77;;
12469;SDS011;36499;46.484;13.832;2022-10-16T14:26:14;9.63;;;8.67;;
12469;SDS011;36499;46.484;13.832;2022-10-16T14:28:46;9.37;;;8.47;;
12469;SDS011;36499;46.484;13.832;2022-10-16T14:36:53;10.43;;;9.43;;
12469;SDS011;36499;46.484;13.832;2022-10-16T14:39:21;11.57;;;9.40;;
12469;SDS011;36499;46.484;13.832;2022-10-16T14:41:51;11.40;;;9.87;;
12469;SDS011;36499;46.484;13.832;2022-10-16T14:44:24;8.63;;;7.43;;
12469;SDS011;36499;46.484;13.832;2022-10-16T14:46:58;8.93;;;7.40;;
12469;SDS011;36499;46.484;13.832;2022-10-16T14:49:36;7.03;;;6.37;;
12469;SDS011;36499;46.484;13.832;2022-10-16T14:52:05;7.13;;;6.43;;
12469;SDS011;36499;46.484;13.832;2022-10-16T14:54:37;11.20;;;7.50;;
12469;SDS011;36499;46.484;13.832;2022-10-16T14:57:05;8.43;;;7.20;;
12469;SDS011;36499;46.484;13.832;2022-10-16T14:59:43;12.93;;;8.23;;
12469;SDS011;36499;46.484;13.832;2022-10-16T15:02:27;11.77;;;8.87;;